Proctor, Texas
Current Conditions -  °F | °C
As of 1:35 PM on Tuesday 21 Oct 2014 (Local Time) from KMKN Reporting Station
Scattered Clouds Scattered Clouds  
Wind Chill: 77°   Ceiling: Unl
Heat Index: 79°   Visibility: 10mi
Dew Point: 58°   Wind: 6mph
Humidity: 51%   Direction: 80°E
Pressure: 30.09"   Gusts: NA
Location:  31.99°N, 98.43°W
Report Text: KMKN 211835Z AUTO 08005KT 10SM SCT041 25/14 A3009 RMK AO2 T02510143
Loading
Personal Weather Stations






























Interactive Weather Map
Tropical Storm Tracking
New forecast layout! Learn more

10-Day Weather Forecast

Advertisements
Track Severe Weather on mobile